Wabash, IN (46992)

9:21 PM EDT on August 29, 2015 (GMT -0400)
South of RoAnn, In. | | Change Station
CLOSE
Current Station
Personal Weather Station
Location: Wabash, IN
Elevation: 769 ft
Nearby Weather Stations

Elev 769 ft 40.89 °N, 85.92 °W | Updated 10 minutes ago

Overcast
Overcast
71.2 °F
Feels Like 71.2 °F
N
2.0
Wind Variable Wind from SW
Gusts 4.0 mph

Today
High -- | Low -- °F
--% Chance of Precip.
Yesterday
High -- | Low -- °F
Precip. -- in
7:07 AM 8:20 PM
Full, 100% visible
Pressure 30.03 in
Visibility 10.0 miles
Clouds Few 4300 ft
Mostly Cloudy 8500 ft
Mostly Cloudy 20000 ft
Dew Point 70 °F
Humidity 95%
Rainfall 0.02 in
Snow Depth Not available.
UV 0.0 out of 12
Pollen 9.30 out of 12
Air Quality Not available.
Flu Activity Not available.
METAR KGUS 300058Z 14005KT 10SM -DZ FEW043 BKN085 BKN200 22/18 A3003 RMK AO2A LTG DSNT NE-E AND W SLP168 P0000 T02220178
Pressure 30.03 in
Visibility 10.0 miles
Clouds Few 4300 ft
Mostly Cloudy 8500 ft
Mostly Cloudy 20000 ft
Dew Point 70 °F
Humidity 95%
Rainfall 0.02 in
Snow Depth Not available.
UV 0.0 out of 12
Pollen 9.30 out of 12
Air Quality Not available.
Flu Activity Not available.
METAR KGUS 300058Z 14005KT 10SM -DZ FEW043 BKN085 BKN200 22/18 A3003 RMK AO2A LTG DSNT NE-E AND W SLP168 P0000 T02220178

10-Day Weather Forecast

×

Almanac

Astronomy

Aug. 29, 2015 Rise Set
Actual Time
Civil Twilight
Nautical Twilight
Astronomical Twilight
Moon
Length of Visible Light
Length of Day
Tomorrow will be .
, % of the Moon is Illuminated

Today's Extremes

State Highs State Lows

Community

WunderPhotos

Upload Photos

1,850,828 photos uploaded!

WunderBlogs® & News

Nearby

Air Quality

  Air Quality AQ Index Pollutant
Not available.

Snow Depth

Station Depth Elevation

Earthquake Activity

City Distance Mag. Time & Date
Minimum magnitude displayed is 2.5.

Coastal Water Temperatures

Place Temperature

Stations

Nearby Weather Stations

Station Location Temp. Windchill Dew Point Humidity Wind Precip. Elev Updated Type